sensor_id;sensor_type;location;lat;lon;timestamp;P1;durP1;ratioP1;P2;durP2;ratioP2
61675;SDS011;47574;52.090;5.244;2023-05-07T00:02:34;21.9;;;18.8;;
61675;SDS011;47574;52.090;5.244;2023-05-07T00:04:10;20.2;;;18.2;;
61675;SDS011;47574;52.090;5.244;2023-05-07T00:05:46;18.91;;;17.0;;
61675;SDS011;47574;52.090;5.244;2023-05-07T00:08:59;19.7;;;17.7;;
61675;SDS011;47574;52.090;5.244;2023-05-07T00:10:35;18.3;;;16.4;;
61675;SDS011;47574;52.090;5.244;2023-05-07T00:12:11;19.5;;;17.41;;
61675;SDS011;47574;52.090;5.244;2023-05-07T00:13:47;18.41;;;16.61;;
61675;SDS011;47574;52.090;5.244;2023-05-07T00:17:01;16.3;;;14.6;;
61675;SDS011;47574;52.090;5.244;2023-05-07T00:18:38;17.7;;;16.0;;
61675;SDS011;47574;52.090;5.244;2023-05-07T00:20:15;16.2;;;14.6;;
61675;SDS011;47574;52.090;5.244;2023-05-07T00:23:27;17.2;;;15.5;;
61675;SDS011;47574;52.090;5.244;2023-05-07T00:25:03;16.4;;;14.5;;
61675;SDS011;47574;52.090;5.244;2023-05-07T00:26:40;14.2;;;12.8;;
61675;SDS011;47574;52.090;5.244;2023-05-07T00:29:54;14.9;;;13.4;;
61675;SDS011;47574;52.090;5.244;2023-05-07T00:31:32;15.0;;;13.6;;
61675;SDS011;47574;52.090;5.244;2023-05-07T00:33:08;14.8;;;13.3;;
61675;SDS011;47574;52.090;5.244;2023-05-07T00:34:44;15.6;;;13.9;;
61675;SDS011;47574;52.090;5.244;2023-05-07T00:37:57;17.0;;;13.7;;
61675;SDS011;47574;52.090;5.244;2023-05-07T00:39:33;15.4;;;13.8;;
61675;SDS011;47574;52.090;5.244;2023-05-07T00:41:10;16.11;;;12.3;;
61675;SDS011;47574;52.090;5.244;2023-05-07T00:44:24;15.1;;;13.3;;
61675;SDS011;47574;52.090;5.244;2023-05-07T00:46:00;14.2;;;12.8;;
61675;SDS011;47574;52.090;5.244;2023-05-07T00:47:37;14.8;;;13.3;;
61675;SDS011;47574;52.090;5.244;2023-05-07T00:50:51;14.1;;;12.7;;
61675;SDS011;47574;52.090;5.244;2023-05-07T00:52:28;15.5;;;12.9;;
61675;SDS011;47574;52.090;5.244;2023-05-07T00:54:05;12.9;;;11.7;;
61675;SDS011;47574;52.090;5.244;2023-05-07T00:55:43;14.2;;;12.0;;
61675;SDS011;47574;52.090;5.244;2023-05-07T00:58:57;13.6;;;12.3;;
61675;SDS011;47574;52.090;5.244;2023-05-07T01:00:33;13.6;;;12.0;;
61675;SDS011;47574;52.090;5.244;2023-05-07T01:02:10;11.9;;;10.7;;
61675;SDS011;47574;52.090;5.244;2023-05-07T01:05:23;12.9;;;11.3;;
61675;SDS011;47574;52.090;5.244;2023-05-07T01:07:02;12.8;;;11.5;;
61675;SDS011;47574;52.090;5.244;2023-05-07T01:08:39;13.6;;;11.9;;
61675;SDS011;47574;52.090;5.244;2023-05-07T01:10:17;14.0;;;11.9;;
61675;SDS011;47574;52.090;5.244;2023-05-07T01:13:32;13.7;;;12.3;;
61675;SDS011;47574;52.090;5.244;2023-05-07T01:15:10;13.0;;;11.8;;
61675;SDS011;47574;52.090;5.244;2023-05-07T01:16:47;12.4;;;11.2;;
61675;SDS011;47574;52.090;5.244;2023-05-07T01:20:02;12.4;;;10.9;;
61675;SDS011;47574;52.090;5.244;2023-05-07T01:21:40;12.5;;;11.2;;
61675;SDS011;47574;52.090;5.244;2023-05-07T01:23:22;12.7;;;11.3;;
61675;SDS011;47574;52.090;5.244;2023-05-07T01:24:59;12.5;;;11.3;;
61675;SDS011;47574;52.090;5.244;2023-05-07T01:28:13;12.4;;;11.2;;
61675;SDS011;47574;52.090;5.244;2023-05-07T01:29:49;12.6;;;11.3;;
61675;SDS011;47574;52.090;5.244;2023-05-07T01:31:26;11.6;;;10.5;;
61675;SDS011;47574;52.090;5.244;2023-05-07T01:34:44;12.4;;;11.2;;
61675;SDS011;47574;52.090;5.244;2023-05-07T01:36:24;12.3;;;11.1;;
61675;SDS011;47574;52.090;5.244;2023-05-07T01:38:02;12.1;;;11.0;;
61675;SDS011;47574;52.090;5.244;2023-05-07T01:39:39;12.8;;;11.5;;
61675;SDS011;47574;52.090;5.244;2023-05-07T01:42:54;12.8;;;11.3;;
61675;SDS011;47574;52.090;5.244;2023-05-07T01:44:30;12.5;;;11.3;;
61675;SDS011;47574;52.090;5.244;2023-05-07T01:46:06;12.8;;;11.5;;
61675;SDS011;47574;52.090;5.244;2023-05-07T01:49:20;11.9;;;10.7;;
61675;SDS011;47574;52.090;5.244;2023-05-07T01:50:56;12.0;;;10.8;;
61675;SDS011;47574;52.090;5.244;2023-05-07T01:52:34;11.9;;;10.7;;
61675;SDS011;47574;52.090;5.244;2023-05-07T01:54:11;12.9;;;11.6;;
61675;SDS011;47574;52.090;5.244;2023-05-07T01:57:24;13.9;;;12.5;;
61675;SDS011;47574;52.090;5.244;2023-05-07T01:59:00;13.6;;;12.2;;
61675;SDS011;47574;52.090;5.244;2023-05-07T02:00:36;11.7;;;10.5;;
61675;SDS011;47574;52.090;5.244;2023-05-07T02:03:49;13.1;;;11.6;;
61675;SDS011;47574;52.090;5.244;2023-05-07T02:05:25;13.6;;;12.2;;
61675;SDS011;47574;52.090;5.244;2023-05-07T02:07:02;12.7;;;11.4;;
61675;SDS011;47574;52.090;5.244;2023-05-07T02:10:14;13.2;;;12.0;;
61675;SDS011;47574;52.090;5.244;2023-05-07T02:11:50;13.0;;;11.6;;
61675;SDS011;47574;52.090;5.244;2023-05-07T02:13:28;12.5;;;11.2;;
61675;SDS011;47574;52.090;5.244;2023-05-07T02:16:42;12.9;;;11.6;;
61675;SDS011;47574;52.090;5.244;2023-05-07T02:18:18;12.4;;;11.2;;
61675;SDS011;47574;52.090;5.244;2023-05-07T02:19:55;12.6;;;11.3;;
61675;SDS011;47574;52.090;5.244;2023-05-07T02:21:31;12.4;;;11.1;;
61675;SDS011;47574;52.090;5.244;2023-05-07T02:24:44;12.8;;;11.5;;
61675;SDS011;47574;52.090;5.244;2023-05-07T02:26:20;12.9;;;11.7;;
61675;SDS011;47574;52.090;5.244;2023-05-07T02:27:56;11.7;;;10.7;;
61675;SDS011;47574;52.090;5.244;2023-05-07T02:31:08;12.7;;;11.4;;
61675;SDS011;47574;52.090;5.244;2023-05-07T02:32:45;14.4;;;10.8;;
61675;SDS011;47574;52.090;5.244;2023-05-07T02:34:21;11.8;;;10.6;;
61675;SDS011;47574;52.090;5.244;2023-05-07T02:37:41;11.8;;;10.7;;
61675;SDS011;47574;52.090;5.244;2023-05-07T02:39:17;13.6;;;12.2;;
61675;SDS011;47574;52.090;5.244;2023-05-07T02:40:53;13.2;;;11.9;;
61675;SDS011;47574;52.090;5.244;2023-05-07T02:42:30;12.7;;;11.5;;
61675;SDS011;47574;52.090;5.244;2023-05-07T02:45:44;13.4;;;12.2;;
61675;SDS011;47574;52.090;5.244;2023-05-07T02:52:08;12.8;;;11.5;;
61675;SDS011;47574;52.090;5.244;2023-05-07T02:53:44;13.0;;;11.6;;
61675;SDS011;47574;52.090;5.244;2023-05-07T02:55:21;13.6;;;12.1;;
61675;SDS011;47574;52.090;5.244;2023-05-07T02:56:57;14.5;;;13.1;;
61675;SDS011;47574;52.090;5.244;2023-05-07T03:00:10;15.9;;;13.8;;
61675;SDS011;47574;52.090;5.244;2023-05-07T03:01:47;14.2;;;12.7;;
61675;SDS011;47574;52.090;5.244;2023-05-07T03:03:24;12.9;;;11.6;;
61675;SDS011;47574;52.090;5.244;2023-05-07T03:06:36;13.1;;;11.9;;
61675;SDS011;47574;52.090;5.244;2023-05-07T03:08:12;14.5;;;13.1;;
61675;SDS011;47574;52.090;5.244;2023-05-07T03:09:48;14.8;;;12.9;;
61675;SDS011;47574;52.090;5.244;2023-05-07T03:13:00;14.7;;;13.1;;
61675;SDS011;47574;52.090;5.244;2023-05-07T03:14:38;13.7;;;12.5;;
61675;SDS011;47574;52.090;5.244;2023-05-07T03:16:14;14.2;;;12.8;;
61675;SDS011;47574;52.090;5.244;2023-05-07T03:19:27;15.7;;;14.2;;
61675;SDS011;47574;52.090;5.244;2023-05-07T03:21:03;14.7;;;13.2;;
61675;SDS011;47574;52.090;5.244;2023-05-07T03:22:39;15.5;;;13.9;;
61675;SDS011;47574;52.090;5.244;2023-05-07T03:24:16;13.9;;;12.6;;
61675;SDS011;47574;52.090;5.244;2023-05-07T03:27:29;15.9;;;14.3;;
61675;SDS011;47574;52.090;5.244;2023-05-07T03:29:05;15.9;;;14.3;;
61675;SDS011;47574;52.090;5.244;2023-05-07T03:30:41;15.8;;;14.2;;
61675;SDS011;47574;52.090;5.244;2023-05-07T03:33:54;16.5;;;14.9;;
61675;SDS011;47574;52.090;5.244;2023-05-07T03:35:31;15.6;;;14.2;;
61675;SDS011;47574;52.090;5.244;2023-05-07T03:37:08;19.7;;;17.91;;
61675;SDS011;47574;52.090;5.244;2023-05-07T03:40:21;19.7;;;17.91;;
61675;SDS011;47574;52.090;5.244;2023-05-07T03:41:57;19.61;;;17.61;;
61675;SDS011;47574;52.090;5.244;2023-05-07T03:43:34;19.11;;;17.2;;
61675;SDS011;47574;52.090;5.244;2023-05-07T03:45:10;23.0;;;19.11;;
61675;SDS011;47574;52.090;5.244;2023-05-07T03:48:23;21.1;;;18.91;;
61675;SDS011;47574;52.090;5.244;2023-05-07T03:49:59;18.91;;;17.11;;
61675;SDS011;47574;52.090;5.244;2023-05-07T03:51:35;19.8;;;17.91;;
61675;SDS011;47574;52.090;5.244;2023-05-07T03:54:48;19.3;;;17.41;;
61675;SDS011;47574;52.090;5.244;2023-05-07T03:56:24;19.7;;;17.7;;
61675;SDS011;47574;52.090;5.244;2023-05-07T03:58:00;19.7;;;17.91;;
61675;SDS011;47574;52.090;5.244;2023-05-07T04:01:13;17.61;;;16.0;;
61675;SDS011;47574;52.090;5.244;2023-05-07T04:02:49;18.7;;;16.9;;
61675;SDS011;47574;52.090;5.244;2023-05-07T04:04:25;19.8;;;17.91;;
61675;SDS011;47574;52.090;5.244;2023-05-07T04:06:01;20.11;;;18.2;;
61675;SDS011;47574;52.090;5.244;2023-05-07T04:09:14;20.41;;;18.41;;
61675;SDS011;47574;52.090;5.244;2023-05-07T04:10:54;21.8;;;19.7;;
61675;SDS011;47574;52.090;5.244;2023-05-07T04:12:31;21.6;;;19.5;;
61675;SDS011;47574;52.090;5.244;2023-05-07T04:15:43;22.3;;;20.0;;
61675;SDS011;47574;52.090;5.244;2023-05-07T04:17:19;22.6;;;20.3;;
61675;SDS011;47574;52.090;5.244;2023-05-07T04:18:55;23.1;;;20.9;;
61675;SDS011;47574;52.090;5.244;2023-05-07T04:22:10;23.1;;;20.7;;
61675;SDS011;47574;52.090;5.244;2023-05-07T04:23:48;23.7;;;21.3;;
61675;SDS011;47574;52.090;5.244;2023-05-07T04:25:24;24.0;;;21.6;;
61675;SDS011;47574;52.090;5.244;2023-05-07T04:27:01;22.6;;;20.3;;
61675;SDS011;47574;52.090;5.244;2023-05-07T04:30:14;23.2;;;21.0;;
61675;SDS011;47574;52.090;5.244;2023-05-07T04:31:50;22.4;;;20.11;;
61675;SDS011;47574;52.090;5.244;2023-05-07T04:33:26;24.1;;;21.7;;
61675;SDS011;47574;52.090;5.244;2023-05-07T04:36:39;21.4;;;19.41;;
61675;SDS011;47574;52.090;5.244;2023-05-07T04:38:17;22.4;;;20.5;;
61675;SDS011;47574;52.090;5.244;2023-05-07T04:39:53;22.7;;;20.6;;
61675;SDS011;47574;52.090;5.244;2023-05-07T04:43:05;22.3;;;20.2;;
61675;SDS011;47574;52.090;5.244;2023-05-07T04:44:41;22.2;;;19.91;;
61675;SDS011;47574;52.090;5.244;2023-05-07T04:46:19;22.3;;;20.0;;
61675;SDS011;47574;52.090;5.244;2023-05-07T04:47:55;24.1;;;21.8;;
61675;SDS011;47574;52.090;5.244;2023-05-07T04:51:08;24.0;;;21.7;;
61675;SDS011;47574;52.090;5.244;2023-05-07T04:52:44;22.6;;;20.5;;
61675;SDS011;47574;52.090;5.244;2023-05-07T04:54:20;22.2;;;19.91;;
61675;SDS011;47574;52.090;5.244;2023-05-07T04:57:33;23.3;;;21.0;;
61675;SDS011;47574;52.090;5.244;2023-05-07T04:59:09;24.5;;;22.1;;
61675;SDS011;47574;52.090;5.244;2023-05-07T05:00:46;23.3;;;21.0;;
61675;SDS011;47574;52.090;5.244;2023-05-07T05:03:58;23.1;;;20.8;;
61675;SDS011;47574;52.090;5.244;2023-05-07T05:05:34;24.8;;;22.4;;
61675;SDS011;47574;52.090;5.244;2023-05-07T05:07:10;25.5;;;23.0;;
61675;SDS011;47574;52.090;5.244;2023-05-07T05:08:46;24.7;;;22.5;;
61675;SDS011;47574;52.090;5.244;2023-05-07T05:11:59;23.9;;;21.5;;
61675;SDS011;47574;52.090;5.244;2023-05-07T05:13:35;23.6;;;21.3;;
61675;SDS011;47574;52.090;5.244;2023-05-07T05:15:11;23.2;;;20.9;;
61675;SDS011;47574;52.090;5.244;2023-05-07T05:18:24;22.9;;;20.6;;
61675;SDS011;47574;52.090;5.244;2023-05-07T05:20:00;23.1;;;20.9;;
61675;SDS011;47574;52.090;5.244;2023-05-07T05:21:36;21.9;;;19.91;;
61675;SDS011;47574;52.090;5.244;2023-05-07T05:24:49;21.2;;;19.0;;
61675;SDS011;47574;52.090;5.244;2023-05-07T05:26:25;20.11;;;18.0;;
61675;SDS011;47574;52.090;5.244;2023-05-07T05:28:01;20.8;;;18.91;;
61675;SDS011;47574;52.090;5.244;2023-05-07T05:31:13;20.3;;;18.3;;
61675;SDS011;47574;52.090;5.244;2023-05-07T05:32:49;19.2;;;17.2;;
61675;SDS011;47574;52.090;5.244;2023-05-07T05:34:25;20.11;;;18.11;;
61675;SDS011;47574;52.090;5.244;2023-05-07T05:36:02;20.2;;;18.2;;
61675;SDS011;47574;52.090;5.244;2023-05-07T05:39:15;18.91;;;17.0;;
61675;SDS011;47574;52.090;5.244;2023-05-07T05:40:53;19.11;;;17.41;;
61675;SDS011;47574;52.090;5.244;2023-05-07T05:42:29;20.7;;;18.11;;
61675;SDS011;47574;52.090;5.244;2023-05-07T05:45:42;20.3;;;18.3;;
61675;SDS011;47574;52.090;5.244;2023-05-07T05:47:18;22.0;;;19.3;;
61675;SDS011;47574;52.090;5.244;2023-05-07T05:48:54;21.3;;;19.3;;
61675;SDS011;47574;52.090;5.244;2023-05-07T05:52:06;21.3;;;18.8;;
61675;SDS011;47574;52.090;5.244;2023-05-07T05:53:42;21.8;;;19.41;;
61675;SDS011;47574;52.090;5.244;2023-05-07T05:55:19;22.2;;;20.11;;
61675;SDS011;47574;52.090;5.244;2023-05-07T05:56:56;22.7;;;20.41;;
61675;SDS011;47574;52.090;5.244;2023-05-07T06:00:09;21.9;;;19.7;;
61675;SDS011;47574;52.090;5.244;2023-05-07T06:01:46;21.9;;;19.7;;
61675;SDS011;47574;52.090;5.244;2023-05-07T06:03:22;22.0;;;19.8;;
61675;SDS011;47574;52.090;5.244;2023-05-07T06:06:34;22.8;;;20.3;;
61675;SDS011;47574;52.090;5.244;2023-05-07T06:08:11;22.9;;;20.5;;
61675;SDS011;47574;52.090;5.244;2023-05-07T06:09:46;23.3;;;20.8;;
61675;SDS011;47574;52.090;5.244;2023-05-07T06:12:59;21.7;;;19.7;;
61675;SDS011;47574;52.090;5.244;2023-05-07T06:14:35;21.6;;;19.3;;
61675;SDS011;47574;52.090;5.244;2023-05-07T06:16:11;22.6;;;20.2;;
61675;SDS011;47574;52.090;5.244;2023-05-07T06:19:25;22.2;;;20.0;;
61675;SDS011;47574;52.090;5.244;2023-05-07T06:21:01;22.7;;;20.41;;
61675;SDS011;47574;52.090;5.244;2023-05-07T06:22:38;22.4;;;20.11;;
61675;SDS011;47574;52.090;5.244;2023-05-07T06:24:14;25.1;;;22.4;;
61675;SDS011;47574;52.090;5.244;2023-05-07T06:27:27;22.7;;;20.2;;
61675;SDS011;47574;52.090;5.244;2023-05-07T06:29:04;21.4;;;19.3;;
61675;SDS011;47574;52.090;5.244;2023-05-07T06:30:40;22.5;;;20.2;;
61675;SDS011;47574;52.090;5.244;2023-05-07T06:33:54;22.5;;;20.2;;
61675;SDS011;47574;52.090;5.244;2023-05-07T06:35:30;21.3;;;19.0;;
61675;SDS011;47574;52.090;5.244;2023-05-07T06:37:07;23.1;;;20.7;;
61675;SDS011;47574;52.090;5.244;2023-05-07T06:40:19;23.4;;;21.0;;
61675;SDS011;47574;52.090;5.244;2023-05-07T06:41:55;22.6;;;20.3;;
61675;SDS011;47574;52.090;5.244;2023-05-07T06:43:32;22.0;;;19.8;;
61675;SDS011;47574;52.090;5.244;2023-05-07T06:45:09;22.5;;;20.3;;
61675;SDS011;47574;52.090;5.244;2023-05-07T06:48:21;22.1;;;19.8;;
61675;SDS011;47574;52.090;5.244;2023-05-07T06:49:58;21.7;;;19.61;;
61675;SDS011;47574;52.090;5.244;2023-05-07T06:51:34;21.7;;;19.5;;
61675;SDS011;47574;52.090;5.244;2023-05-07T06:56:22;24.0;;;21.0;;
61675;SDS011;47574;52.090;5.244;2023-05-07T06:57:58;22.5;;;20.3;;
61675;SDS011;47574;52.090;5.244;2023-05-07T07:01:11;23.4;;;21.0;;
61675;SDS011;47574;52.090;5.244;2023-05-07T07:02:48;23.3;;;21.0;;
61675;SDS011;47574;52.090;5.244;2023-05-07T07:04:23;23.7;;;21.2;;
61675;SDS011;47574;52.090;5.244;2023-05-07T07:06:00;22.8;;;20.5;;
61675;SDS011;47574;52.090;5.244;2023-05-07T07:09:12;21.6;;;19.5;;
61675;SDS011;47574;52.090;5.244;2023-05-07T07:10:48;23.7;;;21.4;;
61675;SDS011;47574;52.090;5.244;2023-05-07T07:12:25;21.9;;;19.7;;
61675;SDS011;47574;52.090;5.244;2023-05-07T07:15:37;24.0;;;21.4;;
61675;SDS011;47574;52.090;5.244;2023-05-07T07:17:13;23.6;;;21.2;;
61675;SDS011;47574;52.090;5.244;2023-05-07T07:18:49;22.6;;;20.5;;
61675;SDS011;47574;52.090;5.244;2023-05-07T07:23:39;23.8;;;21.4;;
61675;SDS011;47574;52.090;5.244;2023-05-07T07:25:15;24.0;;;21.6;;
61675;SDS011;47574;52.090;5.244;2023-05-07T07:26:52;23.7;;;21.5;;
61675;SDS011;47574;52.090;5.244;2023-05-07T07:30:05;23.7;;;21.5;;
61675;SDS011;47574;52.090;5.244;2023-05-07T07:31:43;24.2;;;21.8;;
61675;SDS011;47574;52.090;5.244;2023-05-07T07:33:19;24.3;;;21.8;;
61675;SDS011;47574;52.090;5.244;2023-05-07T07:36:31;25.7;;;23.1;;
61675;SDS011;47574;52.090;5.244;2023-05-07T07:38:07;24.1;;;21.6;;
61675;SDS011;47574;52.090;5.244;2023-05-07T07:39:43;26.0;;;23.4;;
61675;SDS011;47574;52.090;5.244;2023-05-07T07:42:56;24.0;;;21.5;;
61675;SDS011;47574;52.090;5.244;2023-05-07T07:44:33;25.1;;;22.6;;
61675;SDS011;47574;52.090;5.244;2023-05-07T07:46:10;24.9;;;22.4;;
61675;SDS011;47574;52.090;5.244;2023-05-07T07:47:48;23.8;;;21.6;;
61675;SDS011;47574;52.090;5.244;2023-05-07T07:51:00;25.4;;;22.8;;
61675;SDS011;47574;52.090;5.244;2023-05-07T07:52:36;25.4;;;22.8;;
61675;SDS011;47574;52.090;5.244;2023-05-07T07:54:14;25.4;;;22.8;;
61675;SDS011;47574;52.090;5.244;2023-05-07T07:57:26;24.7;;;22.1;;
61675;SDS011;47574;52.090;5.244;2023-05-07T07:59:03;24.1;;;21.7;;
61675;SDS011;47574;52.090;5.244;2023-05-07T08:00:39;26.6;;;23.9;;
61675;SDS011;47574;52.090;5.244;2023-05-07T08:03:52;24.6;;;22.2;;
61675;SDS011;47574;52.090;5.244;2023-05-07T08:05:29;24.4;;;21.8;;
61675;SDS011;47574;52.090;5.244;2023-05-07T08:07:06;25.1;;;22.5;;
61675;SDS011;47574;52.090;5.244;2023-05-07T08:08:42;25.6;;;23.1;;
61675;SDS011;47574;52.090;5.244;2023-05-07T08:11:56;23.5;;;21.2;;
61675;SDS011;47574;52.090;5.244;2023-05-07T08:13:33;23.3;;;21.0;;
61675;SDS011;47574;52.090;5.244;2023-05-07T08:15:10;25.7;;;23.2;;
61675;SDS011;47574;52.090;5.244;2023-05-07T08:18:23;25.1;;;22.6;;
61675;SDS011;47574;52.090;5.244;2023-05-07T08:20:01;25.1;;;22.6;;
61675;SDS011;47574;52.090;5.244;2023-05-07T08:21:38;26.6;;;24.1;;
61675;SDS011;47574;52.090;5.244;2023-05-07T08:24:51;24.2;;;21.7;;
61675;SDS011;47574;52.090;5.244;2023-05-07T08:26:27;22.6;;;20.41;;
61675;SDS011;47574;52.090;5.244;2023-05-07T08:28:04;22.6;;;20.2;;
61675;SDS011;47574;52.090;5.244;2023-05-07T08:29:41;23.4;;;21.0;;
61675;SDS011;47574;52.090;5.244;2023-05-07T08:32:53;22.6;;;20.3;;
61675;SDS011;47574;52.090;5.244;2023-05-07T08:34:29;20.9;;;18.8;;
61675;SDS011;47574;52.090;5.244;2023-05-07T08:36:05;21.6;;;19.41;;
61675;SDS011;47574;52.090;5.244;2023-05-07T08:39:19;23.3;;;20.8;;
61675;SDS011;47574;52.090;5.244;2023-05-07T08:40:55;22.4;;;20.2;;
61675;SDS011;47574;52.090;5.244;2023-05-07T08:42:32;22.7;;;20.3;;
61675;SDS011;47574;52.090;5.244;2023-05-07T08:45:49;22.2;;;20.0;;
61675;SDS011;47574;52.090;5.244;2023-05-07T08:47:32;23.6;;;21.4;;
61675;SDS011;47574;52.090;5.244;2023-05-07T08:49:15;23.7;;;21.4;;
61675;SDS011;47574;52.090;5.244;2023-05-07T08:50:52;24.6;;;22.0;;
61675;SDS011;47574;52.090;5.244;2023-05-07T08:54:05;23.8;;;21.4;;
61675;SDS011;47574;52.090;5.244;2023-05-07T08:55:43;25.7;;;23.1;;
61675;SDS011;47574;52.090;5.244;2023-05-07T08:57:21;23.7;;;21.4;;
61675;SDS011;47574;52.090;5.244;2023-05-07T08:58:57;24.6;;;22.2;;
61675;SDS011;47574;52.090;5.244;2023-05-07T09:02:13;25.6;;;22.9;;
61675;SDS011;47574;52.090;5.244;2023-05-07T09:03:50;24.7;;;22.2;;
61675;SDS011;47574;52.090;5.244;2023-05-07T09:05:28;24.7;;;22.1;;
61675;SDS011;47574;52.090;5.244;2023-05-07T09:08:40;25.0;;;22.3;;
61675;SDS011;47574;52.090;5.244;2023-05-07T09:10:25;24.6;;;22.3;;
61675;SDS011;47574;52.090;5.244;2023-05-07T09:12:02;23.0;;;20.7;;
61675;SDS011;47574;52.090;5.244;2023-05-07T09:13:39;24.7;;;21.6;;
61675;SDS011;47574;52.090;5.244;2023-05-07T09:16:51;24.6;;;22.3;;
61675;SDS011;47574;52.090;5.244;2023-05-07T09:18:28;22.9;;;20.7;;
61675;SDS011;47574;52.090;5.244;2023-05-07T09:20:05;21.7;;;19.41;;
61675;SDS011;47574;52.090;5.244;2023-05-07T09:23:20;22.5;;;20.3;;
61675;SDS011;47574;52.090;5.244;2023-05-07T09:24:57;23.1;;;20.8;;
61675;SDS011;47574;52.090;5.244;2023-05-07T09:26:33;21.7;;;19.61;;
61675;SDS011;47574;52.090;5.244;2023-05-07T09:29:46;22.4;;;20.0;;
61675;SDS011;47574;52.090;5.244;2023-05-07T09:31:23;22.2;;;20.0;;
61675;SDS011;47574;52.090;5.244;2023-05-07T09:33:00;21.4;;;19.3;;
61675;SDS011;47574;52.090;5.244;2023-05-07T09:34:40;20.8;;;18.61;;
61675;SDS011;47574;52.090;5.244;2023-05-07T09:37:54;22.0;;;19.61;;
61675;SDS011;47574;52.090;5.244;2023-05-07T09:39:41;18.91;;;17.0;;
61675;SDS011;47574;52.090;5.244;2023-05-07T09:41:18;20.7;;;17.3;;
61675;SDS011;47574;52.090;5.244;2023-05-07T09:42:55;18.7;;;16.7;;
61675;SDS011;47574;52.090;5.244;2023-05-07T09:46:11;16.5;;;14.8;;
61675;SDS011;47574;52.090;5.244;2023-05-07T09:47:50;16.3;;;14.6;;
61675;SDS011;47574;52.090;5.244;2023-05-07T09:49:32;15.7;;;14.1;;
61675;SDS011;47574;52.090;5.244;2023-05-07T09:53:05;14.1;;;12.7;;
61675;SDS011;47574;52.090;5.244;2023-05-07T09:54:45;13.1;;;11.2;;
61675;SDS011;47574;52.090;5.244;2023-05-07T09:56:22;11.5;;;10.4;;
61675;SDS011;47574;52.090;5.244;2023-05-07T09:58:00;12.8;;;10.9;;
61675;SDS011;47574;52.090;5.244;2023-05-07T09:59:40;11.6;;;9.4;;
61675;SDS011;47574;52.090;5.244;2023-05-07T10:02:57;10.21;;;9.1;;
61675;SDS011;47574;52.090;5.244;2023-05-07T10:04:35;8.31;;;7.5;;
61675;SDS011;47574;52.090;5.244;2023-05-07T10:06:12;8.6;;;7.8;;
61675;SDS011;47574;52.090;5.244;2023-05-07T10:09:28;8.5;;;7.6;;
61675;SDS011;47574;52.090;5.244;2023-05-07T10:11:06;8.0;;;7.3;;
61675;SDS011;47574;52.090;5.244;2023-05-07T10:12:42;7.6;;;6.9;;
61675;SDS011;47574;52.090;5.244;2023-05-07T10:14:19;8.5;;;7.7;;
61675;SDS011;47574;52.090;5.244;2023-05-07T10:19:11;9.0;;;8.1;;
61675;SDS011;47574;52.090;5.244;2023-05-07T10:20:48;8.6;;;7.8;;
61675;SDS011;47574;52.090;5.244;2023-05-07T10:24:13;8.81;;;7.9;;
61675;SDS011;47574;52.090;5.244;2023-05-07T10:25:55;8.9;;;8.1;;
61675;SDS011;47574;52.090;5.244;2023-05-07T10:27:33;9.71;;;8.81;;
61675;SDS011;47574;52.090;5.244;2023-05-07T10:29:12;10.1;;;9.1;;
61675;SDS011;47574;52.090;5.244;2023-05-07T10:31:11;11.4;;;10.21;;
61675;SDS011;47574;52.090;5.244;2023-05-07T10:34:42;11.4;;;10.3;;
61675;SDS011;47574;52.090;5.244;2023-05-07T10:36:21;11.8;;;10.6;;
61675;SDS011;47574;52.090;5.244;2023-05-07T10:37:59;11.3;;;10.1;;
61675;SDS011;47574;52.090;5.244;2023-05-07T10:39:35;11.4;;;10.21;;
61675;SDS011;47574;52.090;5.244;2023-05-07T10:42:53;13.1;;;11.0;;
61675;SDS011;47574;52.090;5.244;2023-05-07T10:44:30;12.5;;;11.2;;
61675;SDS011;47574;52.090;5.244;2023-05-07T10:46:10;12.5;;;11.2;;
61675;SDS011;47574;52.090;5.244;2023-05-07T10:48:05;12.3;;;11.0;;
61675;SDS011;47574;52.090;5.244;2023-05-07T10:53:26;12.3;;;11.1;;
61675;SDS011;47574;52.090;5.244;2023-05-07T10:55:32;12.7;;;11.1;;
61675;SDS011;47574;52.090;5.244;2023-05-07T10:57:41;12.6;;;10.9;;
61675;SDS011;47574;52.090;5.244;2023-05-07T10:59:30;12.4;;;10.3;;
61675;SDS011;47574;52.090;5.244;2023-05-07T11:01:10;11.3;;;9.6;;
61675;SDS011;47574;52.090;5.244;2023-05-07T11:03:18;11.4;;;10.21;;
61675;SDS011;47574;52.090;5.244;2023-05-07T11:05:18;13.0;;;11.7;;
61675;SDS011;47574;52.090;5.244;2023-05-07T11:07:23;13.0;;;11.7;;
61675;SDS011;47574;52.090;5.244;2023-05-07T11:09:05;11.8;;;10.8;;
61675;SDS011;47574;52.090;5.244;2023-05-07T11:10:57;12.1;;;10.21;;
61675;SDS011;47574;52.090;5.244;2023-05-07T11:14:44;12.4;;;11.3;;
61675;SDS011;47574;52.090;5.244;2023-05-07T11:16:22;13.7;;;12.4;;
61675;SDS011;47574;52.090;5.244;2023-05-07T11:18:00;13.7;;;12.4;;
61675;SDS011;47574;52.090;5.244;2023-05-07T11:19:52;13.9;;;12.5;;
61675;SDS011;47574;52.090;5.244;2023-05-07T11:21:32;14.1;;;12.6;;
61675;SDS011;47574;52.090;5.244;2023-05-07T11:25:34;15.4;;;12.3;;
61675;SDS011;47574;52.090;5.244;2023-05-07T11:28:49;14.4;;;12.2;;
61675;SDS011;47574;52.090;5.244;2023-05-07T11:30:27;12.8;;;11.5;;
61675;SDS011;47574;52.090;5.244;2023-05-07T11:32:04;13.5;;;11.7;;
61675;SDS011;47574;52.090;5.244;2023-05-07T11:35:22;12.9;;;11.3;;
61675;SDS011;47574;52.090;5.244;2023-05-07T11:36:59;16.0;;;11.8;;
61675;SDS011;47574;52.090;5.244;2023-05-07T11:38:36;13.5;;;12.0;;
61675;SDS011;47574;52.090;5.244;2023-05-07T11:40:14;15.1;;;11.9;;
61675;SDS011;47574;52.090;5.244;2023-05-07T11:43:26;14.5;;;12.4;;
61675;SDS011;47574;52.090;5.244;2023-05-07T11:45:04;12.8;;;11.5;;
61675;SDS011;47574;52.090;5.244;2023-05-07T11:46:43;13.1;;;11.6;;
61675;SDS011;47574;52.090;5.244;2023-05-07T11:50:03;13.5;;;12.2;;
61675;SDS011;47574;52.090;5.244;2023-05-07T11:51:41;12.5;;;11.3;;
61675;SDS011;47574;52.090;5.244;2023-05-07T11:53:18;15.1;;;12.8;;
61675;SDS011;47574;52.090;5.244;2023-05-07T11:54:56;14.4;;;13.0;;
61675;SDS011;47574;52.090;5.244;2023-05-07T11:58:12;13.6;;;12.2;;
61675;SDS011;47574;52.090;5.244;2023-05-07T11:59:56;13.8;;;12.5;;
61675;SDS011;47574;52.090;5.244;2023-05-07T12:01:35;14.4;;;12.0;;
61675;SDS011;47574;52.090;5.244;2023-05-07T12:03:11;13.6;;;12.2;;
61675;SDS011;47574;52.090;5.244;2023-05-07T12:06:23;13.7;;;12.3;;
61675;SDS011;47574;52.090;5.244;2023-05-07T12:08:00;14.8;;;12.8;;
61675;SDS011;47574;52.090;5.244;2023-05-07T12:09:36;13.1;;;11.4;;
61675;SDS011;47574;52.090;5.244;2023-05-07T12:12:51;13.2;;;11.6;;
61675;SDS011;47574;52.090;5.244;2023-05-07T12:14:28;12.2;;;10.9;;
61675;SDS011;47574;52.090;5.244;2023-05-07T12:16:04;16.61;;;12.7;;
61675;SDS011;47574;52.090;5.244;2023-05-07T12:17:42;15.2;;;13.8;;
61675;SDS011;47574;52.090;5.244;2023-05-07T12:20:56;14.3;;;12.8;;
61675;SDS011;47574;52.090;5.244;2023-05-07T12:22:35;15.4;;;13.1;;
61675;SDS011;47574;52.090;5.244;2023-05-07T12:24:11;14.0;;;12.4;;
61675;SDS011;47574;52.090;5.244;2023-05-07T12:27:27;14.1;;;12.6;;
61675;SDS011;47574;52.090;5.244;2023-05-07T12:29:03;14.3;;;12.8;;
61675;SDS011;47574;52.090;5.244;2023-05-07T12:30:40;13.4;;;12.0;;
61675;SDS011;47574;52.090;5.244;2023-05-07T12:32:19;11.8;;;10.7;;
61675;SDS011;47574;52.090;5.244;2023-05-07T12:35:36;10.5;;;9.5;;
61675;SDS011;47574;52.090;5.244;2023-05-07T12:37:16;11.5;;;10.3;;
61675;SDS011;47574;52.090;5.244;2023-05-07T12:38:53;12.8;;;10.7;;
61675;SDS011;47574;52.090;5.244;2023-05-07T12:42:15;11.3;;;10.1;;
61675;SDS011;47574;52.090;5.244;2023-05-07T12:43:52;14.0;;;11.3;;
61675;SDS011;47574;52.090;5.244;2023-05-07T12:45:36;13.6;;;11.7;;
61675;SDS011;47574;52.090;5.244;2023-05-07T12:47:14;13.3;;;11.7;;
61675;SDS011;47574;52.090;5.244;2023-05-07T12:50:30;13.6;;;12.1;;